createdAt,value
2022-12-24T00:02:09.335Z,7.22
2022-12-24T00:05:12.024Z,7.25
2022-12-24T00:08:14.634Z,7.14
2022-12-24T00:11:17.354Z,7.18
2022-12-24T00:14:19.968Z,7.14
2022-12-24T00:17:23.969Z,7.20
2022-12-24T00:20:26.575Z,7.19
2022-12-24T00:23:29.176Z,7.21
2022-12-24T00:26:31.741Z,7.20
2022-12-24T00:29:35.067Z,7.21
2022-12-24T00:32:39.011Z,7.13
2022-12-24T00:35:42.110Z,7.15
2022-12-24T00:38:45.383Z,7.20
2022-12-24T00:41:48.007Z,7.13
2022-12-24T00:44:50.621Z,7.19
2022-12-24T00:47:54.651Z,7.16
2022-12-24T00:50:57.266Z,7.17
2022-12-24T00:54:00.205Z,7.11
2022-12-24T00:57:02.793Z,7.10
2022-12-24T01:00:06.206Z,7.18
2022-12-24T01:03:10.267Z,7.18
2022-12-24T01:06:15.179Z,7.10
2022-12-24T01:09:17.761Z,7.07
2022-12-24T01:12:20.477Z,7.10
2022-12-24T01:15:23.097Z,7.07
2022-12-24T01:18:27.137Z,6.97
2022-12-24T01:21:29.725Z,6.99
2022-12-24T01:24:32.321Z,7.03
2022-12-24T01:27:34.902Z,7.06
2022-12-24T01:30:37.457Z,7.05
2022-12-24T01:33:41.479Z,7.10
2022-12-24T01:36:44.097Z,7.06
2022-12-24T01:39:46.708Z,7.03
2022-12-24T01:43:08.336Z,6.91
2022-12-24T01:46:17.473Z,7.02
2022-12-24T01:49:21.946Z,7.07
2022-12-24T01:52:29.378Z,7.05
2022-12-24T01:55:32.010Z,7.04
2022-12-24T01:58:36.492Z,7.11
2022-12-24T02:01:40.572Z,7.05
2022-12-24T02:04:51.939Z,7.05
2022-12-24T02:07:54.588Z,7.02
2022-12-24T02:10:57.158Z,6.98
2022-12-24T02:14:02.569Z,7.02
2022-12-24T02:17:18.850Z,7.11
2022-12-24T02:21:01.413Z,7.07
2022-12-24T02:24:26.943Z,7.03
2022-12-24T02:27:37.831Z,7.06
2022-12-24T02:30:46.501Z,7.07
2022-12-24T02:33:55.873Z,7.10
2022-12-24T02:37:03.230Z,7.02
2022-12-24T02:40:16.282Z,7.04
2022-12-24T02:43:24.382Z,7.05
2022-12-24T02:46:31.337Z,7.02
2022-12-24T02:49:33.923Z,7.05
2022-12-24T02:52:38.535Z,6.99
2022-12-24T02:56:00.570Z,7.06
2022-12-24T02:59:29.408Z,7.06
2022-12-24T03:02:51.265Z,7.06
2022-12-24T03:06:01.920Z,7.04
2022-12-24T03:09:14.287Z,6.99
2022-12-24T03:12:22.449Z,7.07
2022-12-24T03:15:26.747Z,7.07
2022-12-24T03:18:31.912Z,7.05
2022-12-24T03:21:37.432Z,7.04
2022-12-24T03:24:40.027Z,7.00
2022-12-24T03:27:42.983Z,7.01
2022-12-24T03:30:48.634Z,6.99
2022-12-24T03:33:53.044Z,6.93
2022-12-24T03:36:55.743Z,6.88
2022-12-24T03:39:58.575Z,6.99
2022-12-24T03:43:01.164Z,6.95
2022-12-24T03:46:08.176Z,6.86
2022-12-24T03:49:12.338Z,6.83
2022-12-24T03:52:15.282Z,6.86
2022-12-24T03:55:18.206Z,6.93
2022-12-24T03:58:20.846Z,6.95
2022-12-24T04:01:23.685Z,6.85
2022-12-24T04:04:27.945Z,6.85
2022-12-24T04:07:30.620Z,6.79
2022-12-24T04:10:33.193Z,6.87
2022-12-24T04:13:36.087Z,6.92
2022-12-24T04:16:38.746Z,6.96
2022-12-24T04:19:42.754Z,6.92
2022-12-24T04:22:45.369Z,6.77
2022-12-24T04:25:48.299Z,6.84
2022-12-24T04:28:50.880Z,6.88
2022-12-24T04:31:53.597Z,6.79
2022-12-24T04:34:57.618Z,6.78
2022-12-24T04:38:00.567Z,6.81
2022-12-24T04:41:05.556Z,6.74
2022-12-24T04:44:08.143Z,6.77
2022-12-24T04:47:10.859Z,6.84
2022-12-24T04:50:14.831Z,6.89
2022-12-24T04:53:17.420Z,6.82
2022-12-24T04:56:21.851Z,6.78
2022-12-24T04:59:24.510Z,6.64
2022-12-24T05:02:27.318Z,6.64
2022-12-24T05:05:31.374Z,6.74
2022-12-24T05:08:34.487Z,6.82
2022-12-24T05:11:37.058Z,6.70
2022-12-24T05:14:40.475Z,6.77
2022-12-24T05:17:43.059Z,6.77
2022-12-24T05:20:47.623Z,6.68
2022-12-24T05:24:07.997Z,6.67
2022-12-24T05:27:10.567Z,6.71
2022-12-24T05:30:13.195Z,6.78
2022-12-24T05:33:15.792Z,6.74
2022-12-24T05:36:19.779Z,6.81
2022-12-24T05:39:22.533Z,6.80
2022-12-24T05:42:25.182Z,6.79
2022-12-24T05:45:27.766Z,6.76
2022-12-24T05:48:30.576Z,6.81
2022-12-24T05:51:34.550Z,6.79
2022-12-24T05:54:37.188Z,6.79
2022-12-24T05:57:41.372Z,6.75
2022-12-24T06:00:44.113Z,6.59
2022-12-24T06:03:46.810Z,6.69
2022-12-24T06:06:50.783Z,6.72
2022-12-24T06:09:53.360Z,6.76
2022-12-24T06:12:56.818Z,6.73
2022-12-24T06:16:01.153Z,6.71
2022-12-24T06:19:03.896Z,6.80
2022-12-24T06:22:07.860Z,6.72
2022-12-24T06:25:10.807Z,6.61
2022-12-24T06:28:13.644Z,6.74
2022-12-24T06:31:18.887Z,6.74
2022-12-24T06:34:21.647Z,6.68
2022-12-24T06:37:25.603Z,6.58
2022-12-24T06:40:28.595Z,6.60
2022-12-24T06:43:31.189Z,6.64
2022-12-24T06:46:33.818Z,6.67
2022-12-24T06:49:36.439Z,6.68
2022-12-24T06:52:40.434Z,6.56
2022-12-24T06:55:43.045Z,6.66
2022-12-24T06:58:46.043Z,6.69
2022-12-24T07:01:48.772Z,6.60
2022-12-24T07:04:51.569Z,6.67
2022-12-24T07:07:55.542Z,6.68
2022-12-24T07:11:00.174Z,6.56
2022-12-24T07:14:02.763Z,6.55
2022-12-24T07:17:05.400Z,6.50
2022-12-24T07:20:13.285Z,6.58
2022-12-24T07:23:17.441Z,6.66
2022-12-24T07:26:20.097Z,6.62
2022-12-24T07:29:22.960Z,6.70
2022-12-24T07:32:25.544Z,6.64
2022-12-24T07:35:28.215Z,6.60
2022-12-24T07:38:32.922Z,6.66
2022-12-24T07:41:41.561Z,6.66
2022-12-24T07:44:44.414Z,6.68
2022-12-24T07:47:47.007Z,6.65
2022-12-24T07:50:50.177Z,6.69
2022-12-24T07:53:54.101Z,6.63
2022-12-24T07:56:57.802Z,6.67
2022-12-24T08:00:00.399Z,6.67
2022-12-24T08:03:03.047Z,6.57
2022-12-24T08:06:06.204Z,6.64
2022-12-24T08:09:10.181Z,6.74
2022-12-24T08:12:12.810Z,6.72
2022-12-24T08:15:15.475Z,6.80
2022-12-24T08:18:18.035Z,6.74
2022-12-24T08:21:20.679Z,6.67
2022-12-24T08:24:24.677Z,6.73
2022-12-24T08:27:27.238Z,6.75
2022-12-24T08:30:29.828Z,6.81
2022-12-24T08:33:33.100Z,6.79
2022-12-24T08:36:36.300Z,6.59
2022-12-24T08:39:40.252Z,6.76
2022-12-24T08:42:42.889Z,6.74
2022-12-24T08:45:46.571Z,6.72
2022-12-24T08:48:49.320Z,6.82
2022-12-24T08:51:52.466Z,6.88
2022-12-24T08:54:56.391Z,6.89
2022-12-24T08:57:59.042Z,6.97
2022-12-24T09:01:02.270Z,7.00
2022-12-24T09:04:05.000Z,6.98
2022-12-24T09:07:07.667Z,6.79
2022-12-24T09:10:13.022Z,6.98
2022-12-24T09:13:15.616Z,7.04
2022-12-24T09:16:18.357Z,6.98
2022-12-24T09:19:21.018Z,6.75
2022-12-24T09:22:23.743Z,6.94
2022-12-24T09:25:27.658Z,6.95
2022-12-24T09:28:30.235Z,6.96
2022-12-24T09:31:32.838Z,7.00
2022-12-24T09:34:35.424Z,7.09
2022-12-24T09:37:38.682Z,7.13
2022-12-24T09:40:42.694Z,7.19
2022-12-24T09:43:50.954Z,7.20
2022-12-24T09:46:54.948Z,7.04
2022-12-24T09:50:01.976Z,7.12
2022-12-24T09:53:15.001Z,7.02
2022-12-24T09:56:23.811Z,7.13
2022-12-24T09:59:36.422Z,7.20
2022-12-24T10:02:39.124Z,7.26
2022-12-24T10:05:47.991Z,7.28
2022-12-24T10:09:04.106Z,7.28
2022-12-24T10:12:13.023Z,7.31
2022-12-24T10:15:27.091Z,7.37
2022-12-24T10:18:47.267Z,7.43
2022-12-24T10:22:08.931Z,7.42
2022-12-24T10:25:20.479Z,7.42
2022-12-24T10:28:30.936Z,7.39
2022-12-24T10:31:42.491Z,7.38
2022-12-24T10:34:47.211Z,7.38
2022-12-24T10:37:51.090Z,7.46
2022-12-24T10:40:57.105Z,7.41
2022-12-24T10:44:01.321Z,7.34
2022-12-24T10:47:06.160Z,7.46
2022-12-24T10:50:17.847Z,7.58
2022-12-24T10:53:26.325Z,7.54
2022-12-24T10:56:28.980Z,7.43
2022-12-24T10:59:42.467Z,7.49
2022-12-24T11:02:45.241Z,7.45
2022-12-24T11:06:00.150Z,7.48
2022-12-24T11:09:21.365Z,7.49
2022-12-24T11:12:26.610Z,7.51
2022-12-24T11:15:34.389Z,7.52
2022-12-24T11:18:42.467Z,7.54
2022-12-24T11:21:47.834Z,7.49
2022-12-24T11:24:59.938Z,7.58
2022-12-24T11:28:12.838Z,7.50
2022-12-24T11:31:21.907Z,7.44
2022-12-24T11:34:28.105Z,7.55
2022-12-24T11:37:30.732Z,7.54
2022-12-24T11:40:36.753Z,7.46
2022-12-24T11:43:46.074Z,7.49
2022-12-24T11:46:52.895Z,7.35
2022-12-24T11:50:12.895Z,7.64
2022-12-24T11:53:22.140Z,7.73
2022-12-24T11:56:36.047Z,7.80
2022-12-24T11:59:44.076Z,7.89
2022-12-24T12:02:52.465Z,7.92
2022-12-24T12:05:56.832Z,7.94
2022-12-24T12:09:03.865Z,7.93
2022-12-24T12:12:10.564Z,8.02
2022-12-24T12:15:17.538Z,8.14
2022-12-24T12:18:25.530Z,8.26
2022-12-24T12:21:34.127Z,8.36
2022-12-24T12:24:40.781Z,8.38
2022-12-24T12:27:45.811Z,8.39
2022-12-24T12:30:56.553Z,8.34
2022-12-24T12:34:06.521Z,8.34
2022-12-24T12:37:15.494Z,8.37
2022-12-24T12:40:19.474Z,8.30
2022-12-24T12:43:37.784Z,8.49
2022-12-24T12:46:57.553Z,8.58
2022-12-24T12:50:11.315Z,8.52
2022-12-24T12:53:37.180Z,8.73
2022-12-24T12:56:45.871Z,8.96
2022-12-24T12:59:53.131Z,8.86
2022-12-24T13:03:42.281Z,8.98
2022-12-24T13:07:15.651Z,8.95
2022-12-24T13:10:38.978Z,8.88
2022-12-24T13:13:53.996Z,8.76
2022-12-24T13:17:15.907Z,8.72
2022-12-24T13:20:23.429Z,8.76
2022-12-24T13:23:28.849Z,8.74
2022-12-24T13:26:31.462Z,8.72
2022-12-24T13:29:53.497Z,8.86
2022-12-24T13:32:56.374Z,8.91
2022-12-24T13:36:01.106Z,8.93
2022-12-24T13:39:05.070Z,8.93
2022-12-24T13:42:08.027Z,8.92
2022-12-24T13:45:44.666Z,8.91
2022-12-24T13:48:47.447Z,8.90
2022-12-24T13:51:51.007Z,8.89
2022-12-24T13:55:08.730Z,8.87
2022-12-24T13:58:19.678Z,8.86
2022-12-24T14:01:33.824Z,8.87
2022-12-24T14:04:42.160Z,8.64
2022-12-24T14:07:47.483Z,8.67
2022-12-24T14:11:04.032Z,8.81
2022-12-24T14:14:12.842Z,8.87
2022-12-24T14:17:23.404Z,8.87
2022-12-24T14:20:26.308Z,8.86
2022-12-24T14:23:37.475Z,8.88
2022-12-24T14:26:48.080Z,8.90
2022-12-24T14:29:54.377Z,8.88
2022-12-24T14:32:58.376Z,8.83
2022-12-24T14:36:02.585Z,8.81
2022-12-24T14:39:07.839Z,8.80
2022-12-24T14:42:26.813Z,8.82
2022-12-24T14:45:34.942Z,8.79
2022-12-24T14:48:44.090Z,8.80
2022-12-24T14:51:53.971Z,8.78
2022-12-24T14:54:56.531Z,8.73
2022-12-24T14:58:20.834Z,8.80
2022-12-24T15:01:26.343Z,8.78
2022-12-24T15:04:29.003Z,8.78
2022-12-24T15:07:33.084Z,8.80
2022-12-24T15:10:38.351Z,8.83
2022-12-24T15:13:44.340Z,8.80
2022-12-24T15:16:54.890Z,8.84
2022-12-24T15:19:59.148Z,8.92
2022-12-24T15:23:01.738Z,8.96
2022-12-24T15:26:10.404Z,8.51
2022-12-24T15:29:24.688Z,8.70
2022-12-24T15:32:27.603Z,8.69
2022-12-24T15:35:35.203Z,8.68
2022-12-24T15:38:40.615Z,8.67
2022-12-24T15:41:59.306Z,8.67
2022-12-24T15:45:06.518Z,8.64
2022-12-24T15:48:11.825Z,8.68
2022-12-24T15:51:15.065Z,8.68
2022-12-24T15:54:22.529Z,8.71
2022-12-24T15:57:27.570Z,8.77
2022-12-24T16:00:32.413Z,8.70
2022-12-24T16:03:36.930Z,8.71
2022-12-24T16:06:54.167Z,8.71
2022-12-24T16:10:14.749Z,8.76
2022-12-24T16:13:20.293Z,8.60
2022-12-24T16:16:34.145Z,8.69
2022-12-24T16:19:40.461Z,8.73
2022-12-24T16:22:46.950Z,8.62
2022-12-24T16:25:50.291Z,8.82
2022-12-24T16:28:52.885Z,8.76
2022-12-24T16:31:58.092Z,8.72
2022-12-24T16:35:02.604Z,8.67
2022-12-24T16:38:06.097Z,8.67
2022-12-24T16:41:08.683Z,8.88
2022-12-24T16:44:10.354Z,8.78
2022-12-24T16:47:18.342Z,8.67
2022-12-24T16:50:20.932Z,8.72
2022-12-24T16:53:23.953Z,8.79
2022-12-24T16:56:26.538Z,8.72
2022-12-24T16:59:29.155Z,8.56
2022-12-24T17:02:33.232Z,8.67
2022-12-24T17:05:38.944Z,8.67
2022-12-24T17:08:41.597Z,8.81
2022-12-24T17:11:44.206Z,8.82
2022-12-24T17:14:46.808Z,8.76
2022-12-24T17:17:50.798Z,8.87
2022-12-24T17:21:01.218Z,8.90
2022-12-24T17:24:04.059Z,8.85
2022-12-24T17:27:06.639Z,8.90
2022-12-24T17:30:10.304Z,8.90
2022-12-24T17:33:15.047Z,8.88
2022-12-24T17:36:17.846Z,9.00
2022-12-24T17:39:27.271Z,9.01
2022-12-24T17:42:30.394Z,9.01
2022-12-24T17:45:32.991Z,8.77
2022-12-24T17:48:37.235Z,8.84
2022-12-24T17:51:45.042Z,9.00
2022-12-24T17:54:48.373Z,9.10
2022-12-24T17:57:51.051Z,9.07
2022-12-24T18:00:55.144Z,9.15
2022-12-24T18:04:01.792Z,9.00
2022-12-24T18:07:04.466Z,9.08
2022-12-24T18:10:08.074Z,9.13
2022-12-24T18:13:17.241Z,9.18
2022-12-24T18:16:24.174Z,9.18
2022-12-24T18:19:28.247Z,9.16
2022-12-24T18:22:30.864Z,9.07
2022-12-24T18:25:33.947Z,9.13
2022-12-24T18:28:36.580Z,9.10
2022-12-24T18:31:39.361Z,9.05
2022-12-24T18:34:43.377Z,9.02
2022-12-24T18:37:45.972Z,8.79
2022-12-24T18:40:48.672Z,9.02
2022-12-24T18:43:51.613Z,8.95
2022-12-24T18:46:54.445Z,8.98
2022-12-24T18:49:58.440Z,8.93
2022-12-24T18:53:01.159Z,8.94
2022-12-24T18:56:05.549Z,8.69
2022-12-24T18:59:08.131Z,8.74
2022-12-24T19:02:11.243Z,8.76
2022-12-24T19:05:15.816Z,8.78
2022-12-24T19:08:55.985Z,8.70
2022-12-24T19:11:42.876Z,8.57
2022-12-24T19:14:45.579Z,8.59
2022-12-24T19:17:48.230Z,8.70
2022-12-24T19:20:52.430Z,8.79
2022-12-24T19:23:55.094Z,8.73
2022-12-24T19:26:57.723Z,8.89
2022-12-24T19:30:00.316Z,8.89
2022-12-24T19:33:02.908Z,8.66
2022-12-24T19:36:12.134Z,8.54
2022-12-24T19:39:15.219Z,8.54
2022-12-24T19:42:17.918Z,8.43
2022-12-24T19:45:21.404Z,8.53
2022-12-24T19:48:23.978Z,8.62
2022-12-24T19:51:30.187Z,8.58
2022-12-24T19:54:32.767Z,8.68
2022-12-24T19:57:35.383Z,8.61
2022-12-24T20:00:37.974Z,8.36
2022-12-24T20:03:40.663Z,8.43
2022-12-24T20:06:44.684Z,8.39
2022-12-24T20:09:47.345Z,8.28
2022-12-24T20:12:49.938Z,8.26
2022-12-24T20:15:53.702Z,8.23
2022-12-24T20:18:57.970Z,8.38
2022-12-24T20:22:02.151Z,8.40
2022-12-24T20:25:05.049Z,8.51
2022-12-24T20:28:07.640Z,8.42
2022-12-24T20:31:12.603Z,8.54
2022-12-24T20:34:15.307Z,8.57
2022-12-24T20:37:19.245Z,8.46
2022-12-24T20:40:21.889Z,8.47
2022-12-24T20:43:25.332Z,8.39
2022-12-24T20:46:30.983Z,8.44
2022-12-24T20:49:33.720Z,8.42
2022-12-24T20:52:37.674Z,8.44
2022-12-24T20:55:40.253Z,8.31
2022-12-24T20:58:43.015Z,8.38
2022-12-24T21:01:45.786Z,8.35
2022-12-24T21:04:48.507Z,8.21
2022-12-24T21:07:52.490Z,8.41
2022-12-24T21:11:15.107Z,8.08
2022-12-24T21:14:19.581Z,8.15
2022-12-24T21:17:22.229Z,8.02
2022-12-24T21:20:29.847Z,8.22
2022-12-24T21:23:33.819Z,7.95
2022-12-24T21:26:36.539Z,8.03
2022-12-24T21:29:39.133Z,7.88
2022-12-24T21:32:41.758Z,8.04
2022-12-24T21:35:44.603Z,7.99
2022-12-24T21:38:48.895Z,7.68
2022-12-24T21:41:51.503Z,7.61
2022-12-24T21:44:54.092Z,7.50
2022-12-24T21:47:56.692Z,7.56
2022-12-24T21:50:58.420Z,7.58
2022-12-24T21:54:20.208Z,7.49
2022-12-24T21:57:40.591Z,7.42
2022-12-24T22:00:43.187Z,7.54
2022-12-24T22:03:48.555Z,7.54
2022-12-24T22:07:09.069Z,7.56
2022-12-24T22:10:31.975Z,7.61
2022-12-24T22:13:34.605Z,7.48
2022-12-24T22:16:37.246Z,7.48
2022-12-24T22:19:39.879Z,7.60
2022-12-24T22:22:42.473Z,7.58
2022-12-24T22:25:47.064Z,7.44
2022-12-24T22:28:49.667Z,7.45
2022-12-24T22:31:52.263Z,7.40
2022-12-24T22:34:54.857Z,7.32
2022-12-24T22:38:00.103Z,7.27
2022-12-24T22:41:09.112Z,7.37
2022-12-24T22:44:11.797Z,7.35
2022-12-24T22:47:14.359Z,7.43
2022-12-24T22:50:17.269Z,7.51
2022-12-24T22:53:19.839Z,7.41
2022-12-24T22:56:24.381Z,7.44
2022-12-24T22:59:27.012Z,7.45
2022-12-24T23:02:29.779Z,7.38
2022-12-24T23:05:32.487Z,7.17
2022-12-24T23:08:36.675Z,7.10
2022-12-24T23:11:41.785Z,7.26
2022-12-24T23:14:58.344Z,7.22
2022-12-24T23:18:00.960Z,7.31
2022-12-24T23:21:06.329Z,7.35
2022-12-24T23:24:10.988Z,7.39
2022-12-24T23:27:14.923Z,7.35
2022-12-24T23:30:17.725Z,7.43
2022-12-24T23:33:20.331Z,7.46
2022-12-24T23:36:23.039Z,7.38
2022-12-24T23:39:25.619Z,7.39
2022-12-24T23:42:29.646Z,7.44
2022-12-24T23:45:32.209Z,7.33
2022-12-24T23:48:34.795Z,7.50
2022-12-24T23:51:37.420Z,7.53
2022-12-24T23:54:40.013Z,7.49
2022-12-24T23:57:44.005Z,7.48
